sensor_id;sensor_type;location;lat;lon;timestamp;P1;durP1;ratioP1;P2;durP2;ratioP2
20894;SDS011;10607;42.066;24.742;2022-11-04T00:01:12;18.45;;;8.27;;
20894;SDS011;10607;42.066;24.742;2022-11-04T00:03:37;17.00;;;7.47;;
20894;SDS011;10607;42.066;24.742;2022-11-04T00:06:03;21.95;;;8.00;;
20894;SDS011;10607;42.066;24.742;2022-11-04T00:08:28;11.45;;;7.03;;
20894;SDS011;10607;42.066;24.742;2022-11-04T00:10:54;17.70;;;8.75;;
20894;SDS011;10607;42.066;24.742;2022-11-04T00:13:54;19.83;;;8.15;;
20894;SDS011;10607;42.066;24.742;2022-11-04T00:16:21;21.70;;;8.63;;
20894;SDS011;10607;42.066;24.742;2022-11-04T00:19:04;16.77;;;9.50;;
20894;SDS011;10607;42.066;24.742;2022-11-04T00:21:30;23.63;;;10.30;;
20894;SDS011;10607;42.066;24.742;2022-11-04T00:24:13;22.23;;;10.13;;
20894;SDS011;10607;42.066;24.742;2022-11-04T00:26:58;22.33;;;9.77;;
20894;SDS011;10607;42.066;24.742;2022-11-04T00:29:42;23.05;;;9.90;;
20894;SDS011;10607;42.066;24.742;2022-11-04T00:32:07;20.35;;;11.52;;
20894;SDS011;10607;42.066;24.742;2022-11-04T00:34:51;17.38;;;10.02;;
20894;SDS011;10607;42.066;24.742;2022-11-04T00:37:16;25.58;;;11.07;;
20894;SDS011;10607;42.066;24.742;2022-11-04T00:39:42;21.38;;;11.63;;
20894;SDS011;10607;42.066;24.742;2022-11-04T00:42:07;21.55;;;11.45;;
20894;SDS011;10607;42.066;24.742;2022-11-04T00:44:32;21.75;;;11.50;;
20894;SDS011;10607;42.066;24.742;2022-11-04T00:46:57;22.88;;;11.57;;
20894;SDS011;10607;42.066;24.742;2022-11-04T00:49:23;22.15;;;11.20;;
20894;SDS011;10607;42.066;24.742;2022-11-04T00:51:48;26.20;;;10.52;;
20894;SDS011;10607;42.066;24.742;2022-11-04T00:54:13;22.88;;;11.80;;
20894;SDS011;10607;42.066;24.742;2022-11-04T00:56:39;26.60;;;12.70;;
20894;SDS011;10607;42.066;24.742;2022-11-04T00:59:04;17.92;;;10.38;;
20894;SDS011;10607;42.066;24.742;2022-11-04T01:01:30;26.55;;;11.10;;
20894;SDS011;10607;42.066;24.742;2022-11-04T01:03:55;28.08;;;10.95;;
20894;SDS011;10607;42.066;24.742;2022-11-04T01:06:21;22.15;;;10.98;;
20894;SDS011;10607;42.066;24.742;2022-11-04T01:08:47;24.35;;;10.68;;
20894;SDS011;10607;42.066;24.742;2022-11-04T01:11:12;28.88;;;11.30;;
20894;SDS011;10607;42.066;24.742;2022-11-04T01:13:38;30.63;;;12.35;;
20894;SDS011;10607;42.066;24.742;2022-11-04T01:16:05;27.52;;;12.75;;
20894;SDS011;10607;42.066;24.742;2022-11-04T01:18:31;25.13;;;12.05;;
20894;SDS011;10607;42.066;24.742;2022-11-04T01:21:02;23.67;;;12.25;;
20894;SDS011;10607;42.066;24.742;2022-11-04T01:23:28;26.02;;;12.30;;
20894;SDS011;10607;42.066;24.742;2022-11-04T01:25:53;20.60;;;11.68;;
20894;SDS011;10607;42.066;24.742;2022-11-04T01:28:18;27.05;;;12.65;;
20894;SDS011;10607;42.066;24.742;2022-11-04T01:30:43;27.83;;;11.77;;
20894;SDS011;10607;42.066;24.742;2022-11-04T01:33:09;26.00;;;13.13;;
20894;SDS011;10607;42.066;24.742;2022-11-04T01:35:34;28.77;;;13.18;;
20894;SDS011;10607;42.066;24.742;2022-11-04T01:37:59;30.65;;;12.82;;
20894;SDS011;10607;42.066;24.742;2022-11-04T01:40:25;29.08;;;12.80;;
20894;SDS011;10607;42.066;24.742;2022-11-04T01:42:50;27.83;;;12.73;;
20894;SDS011;10607;42.066;24.742;2022-11-04T01:45:16;23.10;;;12.85;;
20894;SDS011;10607;42.066;24.742;2022-11-04T01:47:43;25.05;;;13.40;;
20894;SDS011;10607;42.066;24.742;2022-11-04T01:52:37;29.50;;;13.77;;
20894;SDS011;10607;42.066;24.742;2022-11-04T01:55:06;39.00;;;14.68;;
20894;SDS011;10607;42.066;24.742;2022-11-04T01:57:33;23.45;;;13.57;;
20894;SDS011;10607;42.066;24.742;2022-11-04T02:00:00;25.80;;;13.25;;
20894;SDS011;10607;42.066;24.742;2022-11-04T02:02:26;21.73;;;13.27;;
20894;SDS011;10607;42.066;24.742;2022-11-04T02:04:52;23.13;;;13.43;;
20894;SDS011;10607;42.066;24.742;2022-11-04T02:07:17;23.38;;;13.40;;
20894;SDS011;10607;42.066;24.742;2022-11-04T02:09:42;32.55;;;15.10;;
20894;SDS011;10607;42.066;24.742;2022-11-04T02:12:08;23.85;;;14.07;;
20894;SDS011;10607;42.066;24.742;2022-11-04T02:14:52;32.25;;;14.30;;
20894;SDS011;10607;42.066;24.742;2022-11-04T02:22:46;28.13;;;15.65;;
20894;SDS011;10607;42.066;24.742;2022-11-04T02:27:58;29.98;;;14.25;;
20894;SDS011;10607;42.066;24.742;2022-11-04T02:30:38;32.38;;;15.18;;
20894;SDS011;10607;42.066;24.742;2022-11-04T02:33:18;25.27;;;14.15;;
20894;SDS011;10607;42.066;24.742;2022-11-04T02:38:19;33.72;;;14.57;;
20894;SDS011;10607;42.066;24.742;2022-11-04T02:43:14;33.25;;;14.68;;
20894;SDS011;10607;42.066;24.742;2022-11-04T02:45:44;27.98;;;13.80;;
20894;SDS011;10607;42.066;24.742;2022-11-04T02:50:47;26.88;;;14.35;;
20894;SDS011;10607;42.066;24.742;2022-11-04T02:53:26;32.75;;;14.48;;
20894;SDS011;10607;42.066;24.742;2022-11-04T02:55:54;29.77;;;14.48;;
20894;SDS011;10607;42.066;24.742;2022-11-04T02:58:23;28.17;;;13.75;;
20894;SDS011;10607;42.066;24.742;2022-11-04T03:00:49;26.80;;;13.98;;
20894;SDS011;10607;42.066;24.742;2022-11-04T03:03:17;30.67;;;15.05;;
20894;SDS011;10607;42.066;24.742;2022-11-04T03:05:43;31.38;;;14.48;;
20894;SDS011;10607;42.066;24.742;2022-11-04T03:08:18;25.02;;;13.55;;
20894;SDS011;10607;42.066;24.742;2022-11-04T03:10:46;25.88;;;14.82;;
20894;SDS011;10607;42.066;24.742;2022-11-04T03:13:36;25.15;;;13.98;;
20894;SDS011;10607;42.066;24.742;2022-11-04T03:16:00;26.00;;;14.00;;
20894;SDS011;10607;42.066;24.742;2022-11-04T03:21:33;24.55;;;12.52;;
20894;SDS011;10607;42.066;24.742;2022-11-04T03:23:59;26.98;;;14.43;;
20894;SDS011;10607;42.066;24.742;2022-11-04T03:26:31;27.80;;;14.07;;
20894;SDS011;10607;42.066;24.742;2022-11-04T03:29:08;29.48;;;13.80;;
20894;SDS011;10607;42.066;24.742;2022-11-04T03:34:16;24.65;;;14.68;;
20894;SDS011;10607;42.066;24.742;2022-11-04T03:36:41;34.17;;;15.07;;
20894;SDS011;10607;42.066;24.742;2022-11-04T03:39:07;27.08;;;16.08;;
20894;SDS011;10607;42.066;24.742;2022-11-04T03:41:54;30.58;;;16.20;;
20894;SDS011;10607;42.066;24.742;2022-11-04T03:44:17;36.80;;;15.65;;
20894;SDS011;10607;42.066;24.742;2022-11-04T03:46:43;28.00;;;16.13;;
20894;SDS011;10607;42.066;24.742;2022-11-04T03:49:08;30.90;;;16.52;;
20894;SDS011;10607;42.066;24.742;2022-11-04T03:51:35;27.73;;;17.17;;
20894;SDS011;10607;42.066;24.742;2022-11-04T03:54:00;32.00;;;17.05;;
20894;SDS011;10607;42.066;24.742;2022-11-04T03:56:48;28.23;;;16.88;;
20894;SDS011;10607;42.066;24.742;2022-11-04T04:06:35;33.38;;;17.65;;
20894;SDS011;10607;42.066;24.742;2022-11-04T04:09:23;32.38;;;16.77;;
20894;SDS011;10607;42.066;24.742;2022-11-04T04:12:51;32.05;;;15.68;;
20894;SDS011;10607;42.066;24.742;2022-11-04T04:14:49;32.00;;;15.85;;
20894;SDS011;10607;42.066;24.742;2022-11-04T04:17:24;33.13;;;15.35;;
20894;SDS011;10607;42.066;24.742;2022-11-04T04:19:57;33.67;;;15.80;;
20894;SDS011;10607;42.066;24.742;2022-11-04T04:22:25;34.78;;;16.13;;
20894;SDS011;10607;42.066;24.742;2022-11-04T04:24:53;35.22;;;16.02;;
20894;SDS011;10607;42.066;24.742;2022-11-04T04:27:38;31.90;;;15.75;;
20894;SDS011;10607;42.066;24.742;2022-11-04T04:30:05;29.17;;;15.20;;
20894;SDS011;10607;42.066;24.742;2022-11-04T04:32:36;32.03;;;14.73;;
20894;SDS011;10607;42.066;24.742;2022-11-04T04:35:03;39.42;;;16.38;;
20894;SDS011;10607;42.066;24.742;2022-11-04T04:37:47;31.88;;;15.65;;
20894;SDS011;10607;42.066;24.742;2022-11-04T04:40:14;28.70;;;15.43;;
20894;SDS011;10607;42.066;24.742;2022-11-04T04:42:59;38.28;;;16.05;;
20894;SDS011;10607;42.066;24.742;2022-11-04T04:45:47;38.35;;;17.13;;
20894;SDS011;10607;42.066;24.742;2022-11-04T04:48:13;30.92;;;16.13;;
20894;SDS011;10607;42.066;24.742;2022-11-04T04:50:46;30.67;;;16.60;;
20894;SDS011;10607;42.066;24.742;2022-11-04T04:53:12;34.80;;;15.35;;
20894;SDS011;10607;42.066;24.742;2022-11-04T04:55:38;39.65;;;17.30;;
20894;SDS011;10607;42.066;24.742;2022-11-04T04:58:03;51.35;;;17.20;;
20894;SDS011;10607;42.066;24.742;2022-11-04T05:00:28;66.45;;;17.73;;
20894;SDS011;10607;42.066;24.742;2022-11-04T05:02:54;73.45;;;18.45;;
20894;SDS011;10607;42.066;24.742;2022-11-04T05:05:19;71.25;;;19.70;;
20894;SDS011;10607;42.066;24.742;2022-11-04T05:07:45;48.17;;;17.67;;
20894;SDS011;10607;42.066;24.742;2022-11-04T05:10:10;42.75;;;15.98;;
20894;SDS011;10607;42.066;24.742;2022-11-04T05:12:37;46.17;;;16.85;;
20894;SDS011;10607;42.066;24.742;2022-11-04T05:15:21;31.35;;;17.55;;
20894;SDS011;10607;42.066;24.742;2022-11-04T05:17:46;36.53;;;17.27;;
20894;SDS011;10607;42.066;24.742;2022-11-04T05:20:11;41.38;;;16.40;;
20894;SDS011;10607;42.066;24.742;2022-11-04T05:22:37;35.15;;;15.35;;
20894;SDS011;10607;42.066;24.742;2022-11-04T05:25:02;42.72;;;16.05;;
20894;SDS011;10607;42.066;24.742;2022-11-04T05:27:27;56.28;;;17.13;;
20894;SDS011;10607;42.066;24.742;2022-11-04T05:29:53;39.20;;;16.23;;
20894;SDS011;10607;42.066;24.742;2022-11-04T05:32:18;61.97;;;18.45;;
20894;SDS011;10607;42.066;24.742;2022-11-04T05:34:43;71.00;;;19.45;;
20894;SDS011;10607;42.066;24.742;2022-11-04T05:37:09;67.03;;;18.23;;
20894;SDS011;10607;42.066;24.742;2022-11-04T05:39:34;58.33;;;17.85;;
20894;SDS011;10607;42.066;24.742;2022-11-04T05:41:59;60.17;;;17.92;;
20894;SDS011;10607;42.066;24.742;2022-11-04T05:44:25;76.15;;;18.63;;
20894;SDS011;10607;42.066;24.742;2022-11-04T05:46:50;92.05;;;21.27;;
20894;SDS011;10607;42.066;24.742;2022-11-04T05:49:15;76.60;;;21.00;;
20894;SDS011;10607;42.066;24.742;2022-11-04T05:51:40;78.75;;;19.77;;
20894;SDS011;10607;42.066;24.742;2022-11-04T05:54:06;77.15;;;20.08;;
20894;SDS011;10607;42.066;24.742;2022-11-04T05:56:31;61.38;;;19.48;;
20894;SDS011;10607;42.066;24.742;2022-11-04T05:58:56;55.47;;;18.67;;
20894;SDS011;10607;42.066;24.742;2022-11-04T06:01:26;58.45;;;17.45;;
20894;SDS011;10607;42.066;24.742;2022-11-04T06:03:52;61.45;;;18.23;;
20894;SDS011;10607;42.066;24.742;2022-11-04T06:06:18;50.85;;;17.42;;
20894;SDS011;10607;42.066;24.742;2022-11-04T06:08:43;49.33;;;16.42;;
20894;SDS011;10607;42.066;24.742;2022-11-04T06:11:08;40.15;;;18.25;;
20894;SDS011;10607;42.066;24.742;2022-11-04T06:13:34;41.03;;;18.15;;
20894;SDS011;10607;42.066;24.742;2022-11-04T06:15:59;64.28;;;17.40;;
20894;SDS011;10607;42.066;24.742;2022-11-04T06:18:24;53.83;;;18.45;;
20894;SDS011;10607;42.066;24.742;2022-11-04T06:20:49;37.95;;;15.25;;
20894;SDS011;10607;42.066;24.742;2022-11-04T06:23:14;34.72;;;17.00;;
20894;SDS011;10607;42.066;24.742;2022-11-04T06:25:40;39.60;;;17.77;;
20894;SDS011;10607;42.066;24.742;2022-11-04T06:28:05;31.70;;;17.77;;
20894;SDS011;10607;42.066;24.742;2022-11-04T06:30:30;39.60;;;17.45;;
20894;SDS011;10607;42.066;24.742;2022-11-04T06:32:56;30.00;;;16.13;;
20894;SDS011;10607;42.066;24.742;2022-11-04T06:35:21;41.60;;;17.77;;
20894;SDS011;10607;42.066;24.742;2022-11-04T06:37:46;32.35;;;16.13;;
20894;SDS011;10607;42.066;24.742;2022-11-04T06:40:11;41.72;;;17.52;;
20894;SDS011;10607;42.066;24.742;2022-11-04T06:42:37;52.88;;;17.58;;
20894;SDS011;10607;42.066;24.742;2022-11-04T06:45:03;41.78;;;17.30;;
20894;SDS011;10607;42.066;24.742;2022-11-04T06:47:28;36.50;;;16.58;;
20894;SDS011;10607;42.066;24.742;2022-11-04T06:49:53;39.95;;;15.88;;
20894;SDS011;10607;42.066;24.742;2022-11-04T06:52:19;34.00;;;15.45;;
20894;SDS011;10607;42.066;24.742;2022-11-04T06:54:44;31.63;;;17.95;;
20894;SDS011;10607;42.066;24.742;2022-11-04T06:57:11;40.58;;;18.85;;
20894;SDS011;10607;42.066;24.742;2022-11-04T06:59:36;29.40;;;17.33;;
20894;SDS011;10607;42.066;24.742;2022-11-04T07:02:01;33.97;;;15.77;;
20894;SDS011;10607;42.066;24.742;2022-11-04T07:04:27;39.67;;;15.27;;
20894;SDS011;10607;42.066;24.742;2022-11-04T07:06:52;33.92;;;16.23;;
20894;SDS011;10607;42.066;24.742;2022-11-04T07:09:18;40.00;;;15.75;;
20894;SDS011;10607;42.066;24.742;2022-11-04T07:11:43;30.05;;;15.27;;
20894;SDS011;10607;42.066;24.742;2022-11-04T07:14:08;29.73;;;16.33;;
20894;SDS011;10607;42.066;24.742;2022-11-04T07:16:34;37.03;;;15.75;;
20894;SDS011;10607;42.066;24.742;2022-11-04T07:19:00;37.08;;;20.70;;
20894;SDS011;10607;42.066;24.742;2022-11-04T07:21:25;38.33;;;22.33;;
20894;SDS011;10607;42.066;24.742;2022-11-04T07:23:50;38.92;;;18.13;;
20894;SDS011;10607;42.066;24.742;2022-11-04T07:26:15;32.25;;;17.30;;
20894;SDS011;10607;42.066;24.742;2022-11-04T07:28:41;49.75;;;18.02;;
20894;SDS011;10607;42.066;24.742;2022-11-04T07:31:07;30.33;;;17.08;;
20894;SDS011;10607;42.066;24.742;2022-11-04T07:33:32;41.88;;;19.55;;
20894;SDS011;10607;42.066;24.742;2022-11-04T07:35:59;50.05;;;19.42;;
20894;SDS011;10607;42.066;24.742;2022-11-04T07:38:26;49.22;;;20.90;;
20894;SDS011;10607;42.066;24.742;2022-11-04T07:40:51;44.40;;;21.08;;
20894;SDS011;10607;42.066;24.742;2022-11-04T07:43:17;39.50;;;20.80;;
20894;SDS011;10607;42.066;24.742;2022-11-04T07:45:42;30.17;;;19.10;;
20894;SDS011;10607;42.066;24.742;2022-11-04T07:48:08;34.13;;;18.83;;
20894;SDS011;10607;42.066;24.742;2022-11-04T07:50:33;33.97;;;19.48;;
20894;SDS011;10607;42.066;24.742;2022-11-04T07:52:59;37.38;;;18.38;;
20894;SDS011;10607;42.066;24.742;2022-11-04T07:55:24;30.90;;;18.40;;
20894;SDS011;10607;42.066;24.742;2022-11-04T07:57:49;33.47;;;18.17;;
20894;SDS011;10607;42.066;24.742;2022-11-04T08:00:15;34.92;;;20.73;;
20894;SDS011;10607;42.066;24.742;2022-11-04T08:02:40;33.63;;;18.88;;
20894;SDS011;10607;42.066;24.742;2022-11-04T08:05:06;40.55;;;19.02;;
20894;SDS011;10607;42.066;24.742;2022-11-04T08:07:32;35.08;;;18.67;;
20894;SDS011;10607;42.066;24.742;2022-11-04T08:09:57;40.17;;;20.60;;
20894;SDS011;10607;42.066;24.742;2022-11-04T08:12:22;33.42;;;20.55;;
20894;SDS011;10607;42.066;24.742;2022-11-04T08:14:48;40.47;;;20.08;;
20894;SDS011;10607;42.066;24.742;2022-11-04T08:17:13;36.33;;;20.30;;
20894;SDS011;10607;42.066;24.742;2022-11-04T08:19:39;38.15;;;20.50;;
20894;SDS011;10607;42.066;24.742;2022-11-04T08:22:04;43.40;;;22.55;;
20894;SDS011;10607;42.066;24.742;2022-11-04T08:24:29;37.45;;;21.90;;
20894;SDS011;10607;42.066;24.742;2022-11-04T08:26:54;40.33;;;22.60;;
20894;SDS011;10607;42.066;24.742;2022-11-04T08:29:20;46.33;;;24.08;;
20894;SDS011;10607;42.066;24.742;2022-11-04T08:31:45;47.17;;;23.25;;
20894;SDS011;10607;42.066;24.742;2022-11-04T08:34:10;41.10;;;23.48;;
20894;SDS011;10607;42.066;24.742;2022-11-04T08:36:36;46.15;;;25.02;;
20894;SDS011;10607;42.066;24.742;2022-11-04T08:39:03;38.80;;;23.13;;
20894;SDS011;10607;42.066;24.742;2022-11-04T08:41:29;38.28;;;21.63;;
20894;SDS011;10607;42.066;24.742;2022-11-04T08:43:55;44.42;;;23.23;;
20894;SDS011;10607;42.066;24.742;2022-11-04T08:46:20;44.25;;;22.52;;
20894;SDS011;10607;42.066;24.742;2022-11-04T08:48:45;41.88;;;24.10;;
20894;SDS011;10607;42.066;24.742;2022-11-04T08:51:13;50.00;;;23.23;;
20894;SDS011;10607;42.066;24.742;2022-11-04T08:53:39;48.10;;;22.73;;
20894;SDS011;10607;42.066;24.742;2022-11-04T08:56:08;45.03;;;23.58;;
20894;SDS011;10607;42.066;24.742;2022-11-04T08:58:33;48.47;;;22.33;;
20894;SDS011;10607;42.066;24.742;2022-11-04T09:01:01;43.28;;;22.25;;
20894;SDS011;10607;42.066;24.742;2022-11-04T09:03:27;41.05;;;22.63;;
20894;SDS011;10607;42.066;24.742;2022-11-04T09:05:52;42.42;;;23.25;;
20894;SDS011;10607;42.066;24.742;2022-11-04T09:08:18;49.72;;;24.13;;
20894;SDS011;10607;42.066;24.742;2022-11-04T09:10:44;39.80;;;21.70;;
20894;SDS011;10607;42.066;24.742;2022-11-04T09:13:10;50.75;;;23.05;;
20894;SDS011;10607;42.066;24.742;2022-11-04T09:15:36;41.00;;;22.88;;
20894;SDS011;10607;42.066;24.742;2022-11-04T09:18:01;40.45;;;21.95;;
20894;SDS011;10607;42.066;24.742;2022-11-04T09:20:27;42.85;;;23.48;;
20894;SDS011;10607;42.066;24.742;2022-11-04T09:22:52;37.70;;;21.38;;
20894;SDS011;10607;42.066;24.742;2022-11-04T09:25:18;46.30;;;22.77;;
20894;SDS011;10607;42.066;24.742;2022-11-04T09:27:43;45.97;;;21.27;;
20894;SDS011;10607;42.066;24.742;2022-11-04T09:30:09;111.75;;;25.05;;
20894;SDS011;10607;42.066;24.742;2022-11-04T09:32:34;57.85;;;22.98;;
20894;SDS011;10607;42.066;24.742;2022-11-04T09:34:59;38.70;;;21.25;;
20894;SDS011;10607;42.066;24.742;2022-11-04T09:37:25;58.05;;;23.10;;
20894;SDS011;10607;42.066;24.742;2022-11-04T09:39:50;41.35;;;20.45;;
20894;SDS011;10607;42.066;24.742;2022-11-04T09:44:52;45.38;;;23.70;;
20894;SDS011;10607;42.066;24.742;2022-11-04T09:47:19;41.15;;;21.17;;
20894;SDS011;10607;42.066;24.742;2022-11-04T09:49:46;38.13;;;22.23;;
20894;SDS011;10607;42.066;24.742;2022-11-04T09:52:21;38.78;;;22.85;;
20894;SDS011;10607;42.066;24.742;2022-11-04T09:54:49;42.67;;;23.30;;
20894;SDS011;10607;42.066;24.742;2022-11-04T09:57:17;52.70;;;23.02;;
20894;SDS011;10607;42.066;24.742;2022-11-04T09:59:43;48.63;;;22.00;;
20894;SDS011;10607;42.066;24.742;2022-11-04T10:05:01;43.55;;;23.45;;
20894;SDS011;10607;42.066;24.742;2022-11-04T10:20:27;39.40;;;22.38;;
20894;SDS011;10607;42.066;24.742;2022-11-04T10:22:56;55.67;;;22.77;;
20894;SDS011;10607;42.066;24.742;2022-11-04T10:25:24;138.82;;;29.10;;
20894;SDS011;10607;42.066;24.742;2022-11-04T10:27:52;36.92;;;21.48;;
20894;SDS011;10607;42.066;24.742;2022-11-04T10:30:18;36.30;;;20.80;;
20894;SDS011;10607;42.066;24.742;2022-11-04T10:37:39;41.25;;;22.88;;
20894;SDS011;10607;42.066;24.742;2022-11-04T10:40:26;39.33;;;21.17;;
20894;SDS011;10607;42.066;24.742;2022-11-04T10:42:50;42.20;;;22.88;;
20894;SDS011;10607;42.066;24.742;2022-11-04T10:45:16;45.28;;;21.13;;
20894;SDS011;10607;42.066;24.742;2022-11-04T10:47:57;41.00;;;21.88;;
20894;SDS011;10607;42.066;24.742;2022-11-04T10:53:08;38.50;;;20.63;;
20894;SDS011;10607;42.066;24.742;2022-11-04T10:55:56;46.35;;;21.60;;
20894;SDS011;10607;42.066;24.742;2022-11-04T10:58:24;42.50;;;21.10;;
20894;SDS011;10607;42.066;24.742;2022-11-04T11:00:49;39.33;;;22.27;;
20894;SDS011;10607;42.066;24.742;2022-11-04T11:05:50;48.47;;;22.33;;
20894;SDS011;10607;42.066;24.742;2022-11-04T11:08:29;39.15;;;21.33;;
20894;SDS011;10607;42.066;24.742;2022-11-04T11:10:55;51.58;;;21.55;;
20894;SDS011;10607;42.066;24.742;2022-11-04T11:13:28;417.20;;;47.25;;
20894;SDS011;10607;42.066;24.742;2022-11-04T11:16:05;43.10;;;21.98;;
20894;SDS011;10607;42.066;24.742;2022-11-04T11:18:31;36.92;;;20.77;;
20894;SDS011;10607;42.066;24.742;2022-11-04T11:21:04;35.92;;;20.98;;
20894;SDS011;10607;42.066;24.742;2022-11-04T11:23:34;35.55;;;21.33;;
20894;SDS011;10607;42.066;24.742;2022-11-04T11:25:59;39.70;;;21.60;;
20894;SDS011;10607;42.066;24.742;2022-11-04T11:28:25;43.63;;;23.55;;
20894;SDS011;10607;42.066;24.742;2022-11-04T11:30:55;39.70;;;21.58;;
20894;SDS011;10607;42.066;24.742;2022-11-04T11:33:26;40.03;;;22.35;;
20894;SDS011;10607;42.066;24.742;2022-11-04T11:35:53;40.53;;;22.95;;
20894;SDS011;10607;42.066;24.742;2022-11-04T11:38:23;42.00;;;22.08;;
20894;SDS011;10607;42.066;24.742;2022-11-04T11:40:50;39.17;;;21.67;;
20894;SDS011;10607;42.066;24.742;2022-11-04T11:43:39;32.50;;;21.13;;
20894;SDS011;10607;42.066;24.742;2022-11-04T11:46:02;45.55;;;22.88;;
20894;SDS011;10607;42.066;24.742;2022-11-04T11:48:31;45.35;;;22.35;;
20894;SDS011;10607;42.066;24.742;2022-11-04T11:50:57;47.35;;;24.20;;
20894;SDS011;10607;42.066;24.742;2022-11-04T11:53:24;43.08;;;22.88;;
20894;SDS011;10607;42.066;24.742;2022-11-04T11:58:45;44.55;;;22.13;;
20894;SDS011;10607;42.066;24.742;2022-11-04T12:01:21;39.10;;;20.95;;
20894;SDS011;10607;42.066;24.742;2022-11-04T12:03:49;42.15;;;20.70;;
20894;SDS011;10607;42.066;24.742;2022-11-04T12:06:33;42.75;;;21.25;;
20894;SDS011;10607;42.066;24.742;2022-11-04T12:14:16;580.45;;;67.57;;
20894;SDS011;10607;42.066;24.742;2022-11-04T12:21:57;48.60;;;22.40;;
20894;SDS011;10607;42.066;24.742;2022-11-04T12:32:02;43.60;;;22.90;;
20894;SDS011;10607;42.066;24.742;2022-11-04T12:47:38;40.47;;;21.75;;
20894;SDS011;10607;42.066;24.742;2022-11-04T12:50:08;39.92;;;22.17;;
20894;SDS011;10607;42.066;24.742;2022-11-04T13:00:33;38.15;;;23.13;;
20894;SDS011;10607;42.066;24.742;2022-11-04T13:03:12;42.95;;;23.20;;
20894;SDS011;10607;42.066;24.742;2022-11-04T13:05:41;38.08;;;21.98;;
20894;SDS011;10607;42.066;24.742;2022-11-04T13:08:11;41.67;;;23.00;;
20894;SDS011;10607;42.066;24.742;2022-11-04T13:10:39;39.05;;;22.52;;
20894;SDS011;10607;42.066;24.742;2022-11-04T13:13:06;45.22;;;23.02;;
20894;SDS011;10607;42.066;24.742;2022-11-04T13:15:44;39.28;;;22.88;;
20894;SDS011;10607;42.066;24.742;2022-11-04T13:18:11;45.22;;;23.48;;
20894;SDS011;10607;42.066;24.742;2022-11-04T13:20:44;39.78;;;23.00;;
20894;SDS011;10607;42.066;24.742;2022-11-04T13:23:19;37.55;;;21.52;;
20894;SDS011;10607;42.066;24.742;2022-11-04T13:25:46;37.15;;;22.15;;
20894;SDS011;10607;42.066;24.742;2022-11-04T13:28:12;45.72;;;24.33;;
20894;SDS011;10607;42.066;24.742;2022-11-04T13:30:53;51.10;;;24.65;;
20894;SDS011;10607;42.066;24.742;2022-11-04T13:33:28;48.40;;;24.15;;
20894;SDS011;10607;42.066;24.742;2022-11-04T13:38:24;64.32;;;24.65;;
20894;SDS011;10607;42.066;24.742;2022-11-04T13:43:29;41.60;;;24.50;;
20894;SDS011;10607;42.066;24.742;2022-11-04T13:46:03;47.00;;;24.05;;
20894;SDS011;10607;42.066;24.742;2022-11-04T13:48:30;42.03;;;23.73;;
20894;SDS011;10607;42.066;24.742;2022-11-04T13:51:00;42.67;;;23.48;;
20894;SDS011;10607;42.066;24.742;2022-11-04T13:53:39;43.13;;;24.25;;
20894;SDS011;10607;42.066;24.742;2022-11-04T13:56:05;50.15;;;23.90;;
20894;SDS011;10607;42.066;24.742;2022-11-04T13:58:30;42.90;;;24.13;;
20894;SDS011;10607;42.066;24.742;2022-11-04T14:01:42;54.10;;;25.58;;
20894;SDS011;10607;42.066;24.742;2022-11-04T14:06:47;46.20;;;24.77;;
20894;SDS011;10607;42.066;24.742;2022-11-04T14:14:38;53.70;;;24.05;;
20894;SDS011;10607;42.066;24.742;2022-11-04T14:17:55;45.38;;;22.63;;
20894;SDS011;10607;42.066;24.742;2022-11-04T14:19:59;51.42;;;23.27;;
20894;SDS011;10607;42.066;24.742;2022-11-04T14:24:58;64.93;;;21.60;;
20894;SDS011;10607;42.066;24.742;2022-11-04T14:27:30;45.10;;;18.85;;
20894;SDS011;10607;42.066;24.742;2022-11-04T14:29:57;46.97;;;19.58;;
20894;SDS011;10607;42.066;24.742;2022-11-04T14:32:26;41.85;;;18.10;;
20894;SDS011;10607;42.066;24.742;2022-11-04T14:34:58;45.60;;;18.45;;
20894;SDS011;10607;42.066;24.742;2022-11-04T14:37:29;36.00;;;20.00;;
20894;SDS011;10607;42.066;24.742;2022-11-04T14:39:57;38.90;;;19.38;;
20894;SDS011;10607;42.066;24.742;2022-11-04T14:45:07;39.95;;;17.58;;
20894;SDS011;10607;42.066;24.742;2022-11-04T14:47:33;40.33;;;17.10;;
20894;SDS011;10607;42.066;24.742;2022-11-04T14:50:04;44.60;;;18.45;;
20894;SDS011;10607;42.066;24.742;2022-11-04T14:53:04;36.10;;;17.83;;
20894;SDS011;10607;42.066;24.742;2022-11-04T14:55:24;39.85;;;19.70;;
20894;SDS011;10607;42.066;24.742;2022-11-04T14:57:51;49.75;;;18.45;;
20894;SDS011;10607;42.066;24.742;2022-11-04T15:00:31;46.65;;;19.77;;
20894;SDS011;10607;42.066;24.742;2022-11-04T15:05:28;43.63;;;18.70;;
20894;SDS011;10607;42.066;24.742;2022-11-04T15:07:55;40.60;;;18.52;;
20894;SDS011;10607;42.066;24.742;2022-11-04T15:10:21;42.95;;;19.85;;
20894;SDS011;10607;42.066;24.742;2022-11-04T15:12:48;41.45;;;19.98;;
20894;SDS011;10607;42.066;24.742;2022-11-04T15:15:32;50.97;;;21.27;;
20894;SDS011;10607;42.066;24.742;2022-11-04T15:18:08;53.90;;;21.50;;
20894;SDS011;10607;42.066;24.742;2022-11-04T15:20:55;64.85;;;22.23;;
20894;SDS011;10607;42.066;24.742;2022-11-04T15:23:26;45.70;;;21.65;;
20894;SDS011;10607;42.066;24.742;2022-11-04T15:25:52;47.08;;;20.13;;
20894;SDS011;10607;42.066;24.742;2022-11-04T15:28:27;53.50;;;22.02;;
20894;SDS011;10607;42.066;24.742;2022-11-04T15:33:24;39.90;;;20.90;;
20894;SDS011;10607;42.066;24.742;2022-11-04T15:35:51;46.00;;;21.98;;
20894;SDS011;10607;42.066;24.742;2022-11-04T15:38:16;44.13;;;22.50;;
20894;SDS011;10607;42.066;24.742;2022-11-04T15:40:42;46.70;;;22.80;;
20894;SDS011;10607;42.066;24.742;2022-11-04T15:43:08;41.28;;;22.88;;
20894;SDS011;10607;42.066;24.742;2022-11-04T15:45:36;49.55;;;22.13;;
20894;SDS011;10607;42.066;24.742;2022-11-04T15:50:46;45.25;;;22.33;;
20894;SDS011;10607;42.066;24.742;2022-11-04T15:53:13;49.97;;;23.45;;
20894;SDS011;10607;42.066;24.742;2022-11-04T15:55:39;47.75;;;23.02;;
20894;SDS011;10607;42.066;24.742;2022-11-04T15:58:05;42.72;;;22.42;;
20894;SDS011;10607;42.066;24.742;2022-11-04T16:00:33;48.33;;;24.27;;
20894;SDS011;10607;42.066;24.742;2022-11-04T16:02:59;44.42;;;24.02;;
20894;SDS011;10607;42.066;24.742;2022-11-04T16:07:50;46.35;;;24.17;;
20894;SDS011;10607;42.066;24.742;2022-11-04T16:10:23;50.70;;;24.60;;
20894;SDS011;10607;42.066;24.742;2022-11-04T16:12:50;48.55;;;23.85;;
20894;SDS011;10607;42.066;24.742;2022-11-04T16:15:35;54.53;;;24.83;;
20894;SDS011;10607;42.066;24.742;2022-11-04T16:18:03;53.40;;;24.92;;
20894;SDS011;10607;42.066;24.742;2022-11-04T16:20:28;47.80;;;24.80;;
20894;SDS011;10607;42.066;24.742;2022-11-04T16:22:56;48.92;;;25.52;;
20894;SDS011;10607;42.066;24.742;2022-11-04T16:25:23;44.50;;;24.80;;
20894;SDS011;10607;42.066;24.742;2022-11-04T16:27:49;50.33;;;23.90;;